Time;durP1;ratioP1;P1;durP2;ratioP2;P2;SDS_P1;SDS_P2;PMS_P1;PMS_P2;Temp;Humidity;BMP_temperature;BMP_pressure;BME280_temperature;BME280_humidity;BME280_pressure;Samples;Min_cycle;Max_cycle;Signal;HPM_P1;HPM_P2
2021/11/20 00:00:31;;;;;;;48.03;29.70;;;13.10;99.90;;;;;;5061091;28;20439;-77
2021/11/20 00:02:57;;;;;;;51.03;29.23;;;13.20;99.90;;;;;;5057918;28;20539;-77
2021/11/20 00:05:28;;;;;;;44.55;28.38;;;13.20;99.90;;;;;;5067884;28;20119;-77
2021/11/20 00:07:53;;;;;;;48.85;29.42;;;13.20;99.90;;;;;;5056514;28;20024;-77
2021/11/20 00:10:22;;;;;;;49.55;30.42;;;13.20;99.90;;;;;;5061021;28;20366;-77
2021/11/20 00:12:48;;;;;;;49.42;29.77;;;13.20;99.90;;;;;;5055969;28;20085;-77
2021/11/20 00:15:18;;;;;;;55.38;31.13;;;13.20;99.90;;;;;;5065786;28;20052;-77
2021/11/20 00:17:44;;;;;;;53.63;31.88;;;13.20;99.90;;;;;;5049105;28;20056;-77
2021/11/20 00:20:14;;;;;;;53.25;32.80;;;13.20;99.90;;;;;;5064319;28;20052;-77
2021/11/20 00:22:43;;;;;;;56.08;33.40;;;13.10;99.90;;;;;;5063255;28;20732;-77
2021/11/20 00:25:20;;;;;;;57.53;34.83;;;13.10;99.90;;;;;;5049507;28;20485;-77
2021/11/20 00:27:46;;;;;;;63.45;35.92;;;13.10;99.90;;;;;;5045769;28;20033;-77
2021/11/20 00:30:16;;;;;;;58.10;35.30;;;13.10;99.90;;;;;;5058284;28;20489;-77
2021/11/20 00:33:04;;;;;;;63.80;38.33;;;13.20;99.90;;;;;;5026482;28;20025;-77
2021/11/20 00:35:36;;;;;;;57.53;34.10;;;13.20;99.90;;;;;;5065812;28;20047;-77
2021/11/20 00:38:04;;;;;;;61.92;36.58;;;13.20;99.90;;;;;;5054861;28;20025;-77
2021/11/20 00:40:35;;;;;;;64.43;36.28;;;13.10;99.90;;;;;;5063735;28;20158;-77
2021/11/20 00:43:00;;;;;;;61.80;35.90;;;13.10;99.90;;;;;;5060551;28;20032;-77
2021/11/20 00:45:28;;;;;;;69.93;38.05;;;13.20;99.90;;;;;;5071423;28;20384;-77
2021/11/20 00:47:54;;;;;;;63.50;38.10;;;13.20;99.90;;;;;;5053951;28;20036;-77
2021/11/20 00:50:20;;;;;;;65.22;36.88;;;13.20;99.90;;;;;;5063936;28;20021;-77
2021/11/20 00:52:46;;;;;;;69.13;37.15;;;13.10;99.90;;;;;;5061924;28;20100;-78
2021/11/20 00:55:19;;;;;;;67.15;38.17;;;13.10;99.90;;;;;;5052381;28;20017;-77
2021/11/20 00:57:45;;;;;;;66.22;36.42;;;13.00;99.90;;;;;;5040034;28;20028;-80
2021/11/20 01:00:13;;;;;;;70.68;38.90;;;13.10;99.90;;;;;;5047381;28;20358;-77
2021/11/20 01:02:39;;;;;;;69.60;38.38;;;13.10;99.90;;;;;;5049032;28;20036;-76
2021/11/20 01:05:06;;;;;;;67.60;37.33;;;13.20;99.90;;;;;;5045508;28;20025;-77
2021/11/20 01:07:33;;;;;;;64.65;37.00;;;13.20;99.90;;;;;;5055435;28;20057;-77
2021/11/20 01:09:59;;;;;;;72.47;38.85;;;13.10;99.90;;;;;;5067298;28;20033;-77
2021/11/20 01:12:29;;;;;;;59.38;34.85;;;13.20;99.90;;;;;;5064262;28;20033;-78
2021/11/20 01:14:57;;;;;;;69.88;37.97;;;13.10;99.90;;;;;;5070040;28;20654;-78
2021/11/20 01:17:24;;;;;;;68.00;37.63;;;13.10;99.90;;;;;;5055775;28;20669;-78
2021/11/20 01:19:51;;;;;;;64.47;36.63;;;13.20;99.90;;;;;;5059366;28;20017;-77
2021/11/20 01:22:19;;;;;;;75.57;38.72;;;13.20;99.90;;;;;;5048191;28;20021;-77
2021/11/20 01:24:46;;;;;;;71.47;37.13;;;13.10;99.90;;;;;;5060670;28;20066;-77
2021/11/20 01:27:13;;;;;;;70.07;37.30;;;13.10;99.90;;;;;;5045763;28;20501;-77
2021/11/20 01:29:39;;;;;;;66.32;36.22;;;13.00;99.90;;;;;;5043706;28;20124;-77
2021/11/20 01:32:05;;;;;;;65.97;34.45;;;13.10;99.90;;;;;;5038561;28;20036;-77
2021/11/20 01:34:31;;;;;;;72.50;38.70;;;13.10;99.90;;;;;;5049205;28;20108;-77
2021/11/20 01:36:59;;;;;;;71.93;38.70;;;13.10;99.90;;;;;;5050011;28;20442;-77
2021/11/20 01:39:28;;;;;;;75.60;40.90;;;13.10;99.90;;;;;;5056060;28;20028;-78
2021/11/20 01:42:00;;;;;;;73.07;40.97;;;13.10;99.90;;;;;;5073460;28;20108;-78
2021/11/20 01:44:35;;;;;;;71.72;40.00;;;13.10;99.90;;;;;;5055741;28;20043;-78
2021/11/20 01:47:10;;;;;;;71.28;39.20;;;13.00;99.90;;;;;;5059625;28;20056;-78
2021/11/20 01:49:39;;;;;;;71.32;40.08;;;13.00;99.90;;;;;;5059053;28;20028;-77
2021/11/20 01:52:20;;;;;;;70.07;39.55;;;13.10;99.90;;;;;;5059581;28;20036;-77
2021/11/20 01:54:54;;;;;;;72.82;39.67;;;13.10;99.90;;;;;;5060344;28;20489;-77
2021/11/20 01:57:44;;;;;;;66.20;37.78;;;13.10;99.90;;;;;;5044506;28;20560;-78
2021/11/20 02:00:31;;;;;;;73.90;37.58;;;13.00;99.90;;;;;;5074391;28;20036;-77
2021/11/20 02:03:13;;;;;;;67.78;36.40;;;12.90;99.90;;;;;;5068466;28;20064;-77
2021/11/20 02:06:02;;;;;;;68.28;38.72;;;13.00;99.90;;;;;;5070842;28;20052;-77
2021/11/20 02:08:39;;;;;;;71.32;37.67;;;13.10;99.90;;;;;;5051841;28;20164;-77
2021/11/20 02:11:13;;;;;;;72.07;38.75;;;13.00;99.90;;;;;;5063326;28;20024;-78
2021/11/20 02:13:38;;;;;;;71.55;37.63;;;13.00;99.90;;;;;;5050104;28;20388;-77
2021/11/20 02:16:16;;;;;;;70.22;38.65;;;13.00;99.90;;;;;;5044703;28;20366;-78
2021/11/20 02:18:45;;;;;;;73.07;38.75;;;13.10;99.90;;;;;;5042740;28;20025;-77
2021/11/20 02:21:26;;;;;;;66.82;36.28;;;13.10;99.90;;;;;;5043914;28;20031;-77
2021/11/20 02:23:52;;;;;;;69.32;38.30;;;13.00;99.90;;;;;;5041945;28;20021;-77
2021/11/20 02:26:18;;;;;;;72.70;37.10;;;13.10;99.90;;;;;;5044756;28;20023;-77
2021/11/20 02:28:44;;;;;;;66.63;37.42;;;13.10;99.90;;;;;;5040156;28;20108;-77
2021/11/20 02:31:11;;;;;;;67.93;37.95;;;13.10;99.90;;;;;;5043771;28;20108;-78
2021/11/20 02:33:39;;;;;;;66.03;37.95;;;13.10;99.90;;;;;;5044891;28;20086;-77
2021/11/20 02:36:14;;;;;;;64.53;33.67;;;13.10;99.90;;;;;;5042762;28;20021;-77
2021/11/20 02:38:47;;;;;;;60.53;33.85;;;13.10;99.90;;;;;;5040282;28;20025;-77
2021/11/20 02:41:16;;;;;;;55.53;31.27;;;13.10;99.90;;;;;;5043823;28;20031;-77
2021/11/20 02:43:46;;;;;;;61.85;35.20;;;13.10;99.90;;;;;;5043554;28;20535;-77
2021/11/20 02:46:15;;;;;;;58.67;33.42;;;13.00;99.90;;;;;;5039600;28;20017;-78
2021/11/20 02:48:41;;;;;;;57.78;33.03;;;13.00;99.90;;;;;;5047485;28;20032;-78
2021/11/20 02:51:20;;;;;;;58.72;33.50;;;13.00;99.90;;;;;;5062964;28;20033;-78
2021/11/20 02:53:49;;;;;;;58.10;31.95;;;13.00;99.90;;;;;;5042783;28;20056;-78
2021/11/20 02:56:22;;;;;;;57.85;33.13;;;13.00;99.90;;;;;;5065160;28;20048;-77
2021/11/20 02:58:49;;;;;;;56.10;31.95;;;13.00;99.90;;;;;;5055054;28;20021;-78
2021/11/20 03:01:22;;;;;;;53.70;32.20;;;13.00;99.90;;;;;;5053681;28;20017;-77
2021/11/20 03:03:47;;;;;;;;;;;13.00;99.90;;;;;;5043441;28;20040;-77
2021/11/20 03:06:13;;;;;;;58.10;32.45;;;13.00;99.90;;;;;;5058264;28;19909;-78
2021/11/20 03:08:39;;;;;;;57.25;31.38;;;13.10;99.90;;;;;;5056212;28;20028;-78
2021/11/20 03:11:05;;;;;;;59.88;35.10;;;13.10;99.90;;;;;;5057874;28;20187;-78
2021/11/20 03:13:32;;;;;;;61.70;36.15;;;13.10;99.90;;;;;;5069365;28;20021;-77
2021/11/20 03:15:58;;;;;;;59.55;35.17;;;13.00;99.90;;;;;;5054476;28;20037;-77
2021/11/20 03:18:24;;;;;;;58.58;33.17;;;13.00;99.90;;;;;;5060079;28;20099;-78
2021/11/20 03:20:51;;;;;;;56.53;32.35;;;13.00;99.90;;;;;;5053724;28;20040;-78
2021/11/20 03:23:21;;;;;;;58.25;32.47;;;12.90;99.90;;;;;;5065892;28;20052;-78
2021/11/20 03:25:46;;;;;;;54.05;32.50;;;13.00;99.90;;;;;;5052639;28;20464;-78
2021/11/20 03:28:12;;;;;;;63.92;33.88;;;13.00;99.90;;;;;;5048281;28;20028;-78
2021/11/20 03:30:39;;;;;;;57.33;31.92;;;13.00;99.90;;;;;;5060890;28;20509;-77
2021/11/20 03:33:06;;;;;;;60.47;33.65;;;13.00;99.90;;;;;;5055783;28;20017;-77
2021/11/20 03:35:32;;;;;;;56.95;31.92;;;13.00;99.90;;;;;;5068877;28;20461;-78
2021/11/20 03:37:58;;;;;;;57.83;32.75;;;13.00;99.90;;;;;;5058126;28;20070;-78
2021/11/20 03:40:25;;;;;;;58.13;31.65;;;13.00;99.90;;;;;;5061719;28;20485;-78
2021/11/20 03:42:51;;;;;;;59.58;30.38;;;13.00;99.90;;;;;;5061653;28;20039;-77
2021/11/20 03:45:19;;;;;;;60.50;32.45;;;13.00;99.90;;;;;;5055428;28;20105;-78
2021/11/20 03:47:45;;;;;;;58.42;32.05;;;12.90;99.90;;;;;;5057914;28;20526;-78
2021/11/20 03:50:13;;;;;;;59.67;33.10;;;12.90;99.90;;;;;;5064651;28;20096;-78
2021/11/20 03:52:40;;;;;;;57.80;32.58;;;12.90;99.90;;;;;;5052177;28;20025;-77
2021/11/20 03:55:08;;;;;;;58.53;33.13;;;12.90;99.90;;;;;;5067389;28;20025;-77
2021/11/20 03:57:33;;;;;;;59.53;32.88;;;12.90;99.90;;;;;;5055458;28;20091;-78
2021/11/20 03:59:59;;;;;;;63.40;34.90;;;12.90;99.90;;;;;;5065294;28;20029;-77
2021/11/20 04:02:25;;;;;;;60.83;32.97;;;12.90;99.90;;;;;;5043479;28;20033;-77
2021/11/20 04:04:51;;;;;;;58.72;32.13;;;12.90;99.90;;;;;;5059942;28;20178;-78
2021/11/20 04:07:17;;;;;;;59.65;33.40;;;13.00;99.90;;;;;;5054160;28;20145;-78
2021/11/20 04:09:43;;;;;;;66.15;35.60;;;12.90;99.90;;;;;;5067022;28;20025;-78
2021/11/20 04:12:09;;;;;;;64.72;35.25;;;12.90;99.90;;;;;;5059055;28;20078;-77
2021/11/20 04:14:34;;;;;;;68.90;34.22;;;13.00;99.90;;;;;;5061543;28;20025;-77
2021/11/20 04:17:00;;;;;;;63.15;33.85;;;13.00;99.90;;;;;;5057026;28;20381;-78
2021/11/20 04:19:26;;;;;;;66.97;37.10;;;13.00;99.90;;;;;;5071983;28;20033;-78
2021/11/20 04:21:52;;;;;;;68.47;35.38;;;12.90;99.90;;;;;;5061496;28;20021;-78
2021/11/20 04:24:19;;;;;;;70.07;36.60;;;13.00;99.90;;;;;;5067229;28;20029;-78
2021/11/20 04:26:45;;;;;;;65.57;34.47;;;12.90;99.90;;;;;;5068572;28;20024;-78
2021/11/20 04:29:11;;;;;;;71.22;36.63;;;12.90;99.90;;;;;;5055344;28;20033;-78
2021/11/20 04:31:38;;;;;;;66.30;35.25;;;12.90;99.90;;;;;;5070502;28;20044;-78
2021/11/20 04:34:04;;;;;;;68.18;36.20;;;12.90;99.90;;;;;;5062728;28;20468;-77
2021/11/20 04:36:30;;;;;;;74.03;36.55;;;12.90;99.90;;;;;;5056097;28;20203;-78
2021/11/20 04:38:56;;;;;;;67.90;34.92;;;12.90;99.90;;;;;;5063398;28;20042;-78
2021/11/20 04:41:22;;;;;;;72.50;37.33;;;12.90;99.90;;;;;;5058899;28;20025;-78
2021/11/20 04:43:49;;;;;;;79.80;39.38;;;12.90;99.90;;;;;;5071439;28;20029;-78
2021/11/20 04:46:16;;;;;;;74.20;37.25;;;13.00;99.90;;;;;;5060552;28;20008;-78
2021/11/20 04:48:42;;;;;;;76.78;38.33;;;12.90;99.90;;;;;;5066863;28;20029;-77
2021/11/20 04:51:09;;;;;;;75.47;37.78;;;12.90;99.90;;;;;;5059928;28;20076;-78
2021/11/20 04:53:37;;;;;;;84.50;40.47;;;12.90;99.90;;;;;;5072112;28;20115;-79
2021/11/20 04:56:03;;;;;;;80.22;40.92;;;12.90;99.90;;;;;;5061858;28;20070;-77
2021/11/20 04:58:29;;;;;;;79.90;38.90;;;12.90;99.90;;;;;;5073605;28;20029;-78
2021/11/20 05:00:57;;;;;;;79.93;39.05;;;12.90;99.90;;;;;;5055067;28;20017;-77
2021/11/20 05:03:24;;;;;;;84.90;40.60;;;12.90;99.90;;;;;;5068092;28;20464;-78
2021/11/20 05:05:52;;;;;;;78.97;39.63;;;12.90;99.90;;;;;;5070506;28;20024;-78
2021/11/20 05:08:20;;;;;;;76.18;38.80;;;12.80;99.90;;;;;;5062138;28;20008;-78
2021/11/20 05:10:48;;;;;;;74.47;37.05;;;12.90;99.90;;;;;;5060855;28;20020;-78
2021/11/20 05:13:14;;;;;;;83.47;40.72;;;12.90;99.90;;;;;;5067765;28;20036;-79
2021/11/20 05:15:43;;;;;;;84.13;40.35;;;12.80;99.90;;;;;;5057991;28;20051;-78
2021/11/20 05:18:09;;;;;;;84.50;40.38;;;12.90;99.90;;;;;;5063092;28;20070;-78
2021/11/20 05:20:36;;;;;;;75.53;38.45;;;12.90;99.90;;;;;;5064058;28;20024;-77
2021/11/20 05:23:03;;;;;;;80.95;37.92;;;12.90;99.90;;;;;;5069887;28;20506;-78
2021/11/20 05:25:28;;;;;;;79.18;40.50;;;12.80;99.90;;;;;;5056825;28;20023;-78
2021/11/20 05:27:54;;;;;;;82.72;40.97;;;12.90;99.90;;;;;;5057788;28;20029;-78
2021/11/20 05:30:32;;;;;;;80.75;41.92;;;12.90;99.90;;;;;;5065524;28;20021;-78
2021/11/20 05:32:59;;;;;;;79.63;39.15;;;12.80;99.90;;;;;;5069012;28;20067;-78
2021/11/20 05:35:29;;;;;;;78.38;41.40;;;12.80;99.90;;;;;;5057761;28;20107;-78
2021/11/20 05:37:55;;;;;;;84.63;40.85;;;12.90;99.90;;;;;;5068956;28;20016;-78
2021/11/20 05:40:21;;;;;;;79.28;38.70;;;12.90;99.90;;;;;;5063661;28;20028;-78
2021/11/20 05:42:50;;;;;;;79.22;41.65;;;12.80;99.90;;;;;;5061068;28;20438;-79
2021/11/20 05:45:19;;;;;;;74.32;38.88;;;12.90;99.90;;;;;;5067951;28;20028;-77
2021/11/20 05:47:46;;;;;;;84.53;40.30;;;12.90;99.90;;;;;;5046746;28;20029;-78
2021/11/20 05:50:12;;;;;;;80.80;40.38;;;12.80;99.90;;;;;;5065408;28;20492;-78
2021/11/20 05:52:38;;;;;;;79.75;41.55;;;12.90;99.90;;;;;;5065793;28;20037;-78
2021/11/20 05:55:06;;;;;;;86.05;41.70;;;12.90;99.90;;;;;;5059655;28;20470;-78
2021/11/20 05:57:32;;;;;;;80.18;41.00;;;12.90;99.90;;;;;;5067806;28;20040;-78
2021/11/20 05:59:58;;;;;;;80.32;39.97;;;12.90;99.90;;;;;;5068125;28;20025;-78
2021/11/20 06:02:24;;;;;;;87.35;40.15;;;12.90;99.90;;;;;;5052788;28;20142;-78
2021/11/20 06:04:50;;;;;;;84.65;41.55;;;12.90;99.90;;;;;;5055688;28;20032;-78
2021/11/20 06:07:16;;;;;;;78.15;39.53;;;12.90;99.90;;;;;;5065631;28;20086;-78
2021/11/20 06:09:42;;;;;;;80.95;41.92;;;12.90;99.90;;;;;;5055954;28;20017;-80
2021/11/20 06:12:10;;;;;;;81.70;41.30;;;12.90;99.90;;;;;;5066406;28;20032;-78
2021/11/20 06:14:36;;;;;;;81.30;43.53;;;12.90;99.90;;;;;;5049258;28;20025;-78
2021/11/20 06:17:01;;;;;;;88.50;42.65;;;12.90;99.90;;;;;;5051497;28;20036;-78
2021/11/20 06:19:28;;;;;;;82.40;40.58;;;12.90;99.90;;;;;;5064473;28;20233;-77
2021/11/20 06:21:54;;;;;;;82.97;40.97;;;12.90;99.90;;;;;;5056880;28;20027;-78
2021/11/20 06:24:20;;;;;;;84.13;43.53;;;12.90;99.90;;;;;;5065113;28;20025;-77
2021/11/20 06:26:46;;;;;;;81.45;38.67;;;12.80;99.90;;;;;;5066503;28;20024;-77
2021/11/20 06:29:13;;;;;;;84.50;39.97;;;12.80;99.90;;;;;;5056388;28;20021;-77
2021/11/20 06:31:39;;;;;;;85.75;40.80;;;12.90;99.90;;;;;;5058481;28;20153;-77
2021/11/20 06:34:05;;;;;;;80.90;40.60;;;12.90;99.90;;;;;;5067054;28;20013;-77
2021/11/20 06:36:32;;;;;;;87.85;42.08;;;12.80;99.90;;;;;;5064439;28;20012;-76
2021/11/20 06:38:58;;;;;;;88.15;40.90;;;12.80;99.90;;;;;;5054653;28;20036;-77
2021/11/20 06:41:24;;;;;;;88.55;42.67;;;12.80;99.90;;;;;;5047646;28;20029;-77
2021/11/20 06:43:50;;;;;;;91.45;45.50;;;12.70;99.90;;;;;;5045181;28;20123;-77
2021/11/20 06:46:17;;;;;;;84.03;42.85;;;12.70;99.90;;;;;;5042859;28;20036;-77
2021/11/20 06:48:43;;;;;;;90.00;46.05;;;12.80;99.90;;;;;;5038481;28;20029;-77
2021/11/20 06:51:14;;;;;;;100.35;46.00;;;12.80;99.90;;;;;;5040526;28;20354;-77
2021/11/20 06:53:42;;;;;;;85.88;43.53;;;12.70;99.90;;;;;;5045689;28;20032;-77
2021/11/20 06:56:15;;;;;;;95.30;46.75;;;12.80;99.90;;;;;;5041103;28;20429;-77
2021/11/20 07:01:28;;;;;;;93.20;45.70;;;12.80;99.90;;;;;;5043125;28;20069;-77
2021/11/20 07:03:58;;;;;;;91.07;46.78;;;12.70;99.90;;;;;;5043446;28;20623;-77
2021/11/20 07:06:28;;;;;;;99.53;46.40;;;12.80;99.90;;;;;;5042370;28;20032;-77
2021/11/20 07:08:55;;;;;;;86.40;45.15;;;12.80;99.90;;;;;;5042594;28;20022;-77
2021/11/20 07:11:22;;;;;;;93.72;48.78;;;12.80;99.90;;;;;;5040803;28;20033;-77
2021/11/20 07:13:49;;;;;;;90.18;46.28;;;12.80;99.90;;;;;;5042046;28;20035;-77
2021/11/20 07:16:17;;;;;;;90.85;46.58;;;12.80;99.90;;;;;;5042440;28;20025;-77
2021/11/20 07:18:43;;;;;;;89.50;44.33;;;12.80;99.90;;;;;;5040807;28;20117;-77
2021/11/20 07:21:10;;;;;;;81.50;41.28;;;12.80;99.90;;;;;;5040531;28;20355;-77
2021/11/20 07:23:36;;;;;;;83.13;43.95;;;12.70;99.90;;;;;;5042902;28;20033;-77
2021/11/20 07:26:04;;;;;;;79.55;42.38;;;12.70;99.90;;;;;;5041018;28;20022;-77
2021/11/20 07:28:30;;;;;;;91.68;45.92;;;12.70;99.90;;;;;;5040774;28;20452;-77
2021/11/20 07:30:57;;;;;;;80.40;41.25;;;12.70;99.90;;;;;;5042404;28;20072;-77
2021/11/20 07:33:23;;;;;;;79.85;40.08;;;12.70;99.90;;;;;;5040846;28;20544;-77
2021/11/20 07:35:52;;;;;;;74.30;39.55;;;12.70;99.90;;;;;;5041347;28;20422;-77
2021/11/20 07:38:37;;;;;;;69.75;36.83;;;12.70;99.90;;;;;;5039931;28;20373;-76
2021/11/20 07:41:04;;;;;;;77.60;39.95;;;12.70;99.90;;;;;;5042356;28;20104;-76
2021/11/20 07:43:30;;;;;;;82.88;38.00;;;12.70;99.90;;;;;;5041830;28;20026;-76
2021/11/20 07:45:56;;;;;;;72.47;37.92;;;12.70;99.90;;;;;;5040794;28;20032;-76
2021/11/20 07:48:24;;;;;;;76.55;39.53;;;12.70;99.90;;;;;;5041733;28;20017;-76
2021/11/20 07:50:53;;;;;;;76.30;37.42;;;12.70;99.90;;;;;;5038863;28;20041;-75
2021/11/20 07:53:19;;;;;;;71.00;37.55;;;12.70;99.90;;;;;;5039701;28;20052;-76
2021/11/20 07:55:46;;;;;;;71.18;38.10;;;12.70;99.90;;;;;;5068155;28;20014;-75
2021/11/20 07:58:13;;;;;;;71.60;37.45;;;12.70;99.90;;;;;;5058346;28;20074;-76
2021/11/20 08:00:40;;;;;;;68.65;36.75;;;12.70;99.90;;;;;;5060720;28;20055;-76
2021/11/20 08:03:07;;;;;;;68.47;37.00;;;12.80;99.90;;;;;;5067269;28;20034;-75
2021/11/20 08:05:34;;;;;;;68.95;36.67;;;12.70;99.90;;;;;;5069478;28;20022;-76
2021/11/20 08:08:00;;;;;;;72.40;37.78;;;12.80;99.90;;;;;;5066011;28;20090;-75
2021/11/20 08:10:29;;;;;;;67.15;36.90;;;12.80;99.90;;;;;;5061895;28;20109;-76
2021/11/20 08:12:56;;;;;;;68.30;36.92;;;12.70;99.90;;;;;;5060904;28;20021;-77
2021/11/20 08:15:21;;;;;;;70.90;36.72;;;12.70;99.90;;;;;;5038446;28;20537;-76
2021/11/20 08:17:47;;;;;;;73.90;36.67;;;12.70;99.90;;;;;;5060811;28;20103;-78
2021/11/20 08:20:16;;;;;;;67.90;34.80;;;12.70;99.90;;;;;;5048492;28;20124;-77
2021/11/20 08:22:43;;;;;;;63.45;33.70;;;12.70;99.90;;;;;;5055181;28;20090;-77
2021/11/20 08:25:13;;;;;;;71.03;35.72;;;12.70;99.90;;;;;;5048257;28;20044;-76
2021/11/20 08:27:39;;;;;;;64.50;35.83;;;12.70;99.90;;;;;;5058122;28;20017;-76
2021/11/20 08:30:08;;;;;;;60.55;32.92;;;12.70;99.90;;;;;;5064887;28;20040;-78
2021/11/20 08:32:34;;;;;;;72.22;35.05;;;12.70;99.90;;;;;;5043293;28;20032;-76
2021/11/20 08:35:00;;;;;;;62.58;33.92;;;12.80;99.90;;;;;;5042747;28;20029;-76
2021/11/20 08:37:26;;;;;;;60.00;34.05;;;12.70;99.90;;;;;;5040863;28;20025;-77
2021/11/20 08:39:54;;;;;;;60.17;33.58;;;12.80;99.90;;;;;;5041088;28;20029;-77
2021/11/20 08:42:20;;;;;;;63.05;33.45;;;12.80;99.90;;;;;;5043900;28;20485;-77
2021/11/20 08:44:46;;;;;;;58.33;32.58;;;12.80;99.90;;;;;;5040236;28;20116;-77
2021/11/20 08:47:12;;;;;;;58.95;33.67;;;12.70;99.90;;;;;;5052673;28;20021;-77
2021/11/20 08:49:38;;;;;;;51.78;30.05;;;12.70;99.90;;;;;;5049338;28;20024;-77
2021/11/20 08:52:05;;;;;;;59.35;33.50;;;12.70;99.90;;;;;;5046398;28;20505;-76
2021/11/20 08:54:30;;;;;;;61.70;34.15;;;12.70;99.90;;;;;;5047065;28;20021;-77
2021/11/20 08:56:58;;;;;;;56.53;33.17;;;12.70;99.90;;;;;;5043708;28;20057;-77
2021/11/20 08:59:27;;;;;;;48.63;29.75;;;12.70;99.90;;;;;;5046321;28;20021;-76
2021/11/20 09:02:13;;;;;;;48.38;29.33;;;12.70;99.90;;;;;;5050250;28;20094;-78
2021/11/20 09:04:53;;;;;;;50.08;29.48;;;12.70;99.90;;;;;;5051589;28;20063;-77
2021/11/20 09:07:42;;;;;;;48.22;31.17;;;12.70;99.90;;;;;;5046377;28;20028;-77
2021/11/20 09:10:23;;;;;;;47.55;27.40;;;12.70;99.90;;;;;;5076553;28;20037;-76
2021/11/20 09:12:56;;;;;;;47.08;27.52;;;12.80;99.90;;;;;;5052942;28;20025;-76
2021/11/20 09:15:25;;;;;;;42.20;26.75;;;12.80;99.90;;;;;;5049264;28;20017;-75
2021/11/20 09:17:51;;;;;;;52.50;28.05;;;12.70;99.90;;;;;;5049808;28;20032;-76
2021/11/20 09:20:19;;;;;;;45.05;25.73;;;12.80;99.90;;;;;;5044268;28;20013;-75
2021/11/20 09:22:45;;;;;;;44.10;26.52;;;12.80;99.90;;;;;;5049219;28;20025;-75
2021/11/20 09:25:12;;;;;;;43.22;26.17;;;12.80;99.90;;;;;;5047401;28;20044;-77
2021/11/20 09:27:41;;;;;;;39.70;26.08;;;12.90;99.90;;;;;;5052810;28;20100;-85
2021/11/20 09:30:10;;;;;;;38.00;23.90;;;12.80;99.90;;;;;;5052605;28;20146;-77
2021/11/20 09:32:36;;;;;;;37.45;24.17;;;12.90;99.90;;;;;;5045563;28;20516;-76
2021/11/20 09:35:04;;;;;;;38.95;24.83;;;12.80;99.90;;;;;;5049484;28;20049;-76
2021/11/20 09:37:30;;;;;;;38.72;24.70;;;12.90;99.90;;;;;;5050516;28;20013;-75
2021/11/20 09:39:55;;;;;;;39.35;23.20;;;12.90;99.90;;;;;;5060773;28;20074;-81
2021/11/20 09:42:36;;;;;;;33.22;22.15;;;12.90;99.90;;;;;;5065633;28;20389;-77
2021/11/20 09:45:19;;;;;;;37.63;24.25;;;12.80;99.90;;;;;;5066197;28;20498;-76
2021/11/20 09:47:50;;;;;;;33.60;21.83;;;12.80;99.90;;;;;;5052724;28;20052;-76
2021/11/20 09:50:25;;;;;;;37.50;22.23;;;12.80;99.90;;;;;;5067142;28;20017;-75
2021/11/20 09:52:51;;;;;;;35.85;22.90;;;12.80;99.90;;;;;;5055148;28;20068;-76
2021/11/20 09:55:43;;;;;;;34.80;22.13;;;12.90;99.90;;;;;;5052823;28;20052;-75
2021/11/20 09:58:17;;;;;;;35.47;22.85;;;12.80;99.90;;;;;;5074590;28;20084;-79
2021/11/20 10:01:03;;;;;;;33.15;22.10;;;12.90;99.90;;;;;;5057258;28;20033;-76
2021/11/20 10:03:47;;;;;;;32.85;22.60;;;12.90;99.90;;;;;;5055768;28;20040;-75
2021/11/20 10:06:44;;;;;;;31.45;20.30;;;12.80;99.90;;;;;;5062834;28;20012;-83
2021/11/20 10:09:23;;;;;;;30.00;20.75;;;12.80;99.90;;;;;;5058591;28;20025;-78
2021/11/20 10:12:01;;;;;;;31.40;21.45;;;12.80;99.90;;;;;;5069030;28;20519;-76
2021/11/20 10:14:35;;;;;;;34.00;21.52;;;12.80;99.90;;;;;;5062593;28;20024;-77
2021/11/20 10:17:20;;;;;;;30.38;20.70;;;12.90;99.90;;;;;;5051843;28;20034;-75
2021/11/20 10:19:50;;;;;;;28.77;20.02;;;12.90;99.90;;;;;;5045616;28;20028;-75
2021/11/20 10:22:33;;;;;;;32.42;21.20;;;12.90;99.90;;;;;;5055912;28;20028;-76
2021/11/20 10:25:17;;;;;;;32.78;21.30;;;12.90;99.90;;;;;;5058954;28;20107;-75
2021/11/20 10:28:03;;;;;;;30.65;19.30;;;12.90;99.90;;;;;;5043609;28;20104;-75
2021/11/20 10:30:55;;;;;;;29.25;18.17;;;13.00;99.90;;;;;;5065296;28;20039;-76
2021/11/20 10:33:42;;;;;;;32.55;20.13;;;12.90;99.90;;;;;;5051734;28;20485;-76
2021/11/20 10:36:16;;;;;;;29.73;18.52;;;13.00;99.90;;;;;;5046651;28;20037;-75
2021/11/20 10:38:47;;;;;;;29.50;18.70;;;13.00;99.90;;;;;;5048630;28;20474;-76
2021/11/20 10:41:48;;;;;;;31.83;20.25;;;13.00;99.90;;;;;;5059822;28;20027;-77
2021/11/20 10:44:20;;;;;;;33.08;19.98;;;12.90;99.90;;;;;;5047351;28;20052;-75
2021/11/20 10:46:58;;;;;;;32.20;20.77;;;12.90;99.90;;;;;;5044280;28;20033;-75
2021/11/20 10:49:42;;;;;;;31.77;20.35;;;12.90;99.90;;;;;;5081630;28;20435;-75
2021/11/20 10:52:33;;;;;;;30.55;19.10;;;12.90;99.90;;;;;;5066006;28;20021;-76
2021/11/20 10:55:23;;;;;;;27.40;18.10;;;12.90;99.90;;;;;;5066568;28;20112;-80
2021/11/20 10:58:07;;;;;;;27.13;18.27;;;12.90;99.90;;;;;;5041379;28;20073;-76
2021/11/20 11:00:52;;;;;;;28.80;19.67;;;13.00;99.90;;;;;;5059863;28;20020;-75
2021/11/20 11:03:44;;;;;;;27.48;18.67;;;12.90;99.90;;;;;;5067384;28;20064;-78
2021/11/20 11:06:15;;;;;;;29.50;18.40;;;12.90;99.90;;;;;;5065591;28;20025;-75
2021/11/20 11:09:16;;;;;;;29.85;18.02;;;12.90;99.90;;;;;;5064661;28;20024;-75
2021/11/20 11:11:51;;;;;;;32.25;19.83;;;12.90;99.90;;;;;;5040190;28;20039;-75
2021/11/20 11:14:50;;;;;;;26.80;17.60;;;13.00;99.90;;;;;;5063716;28;20482;-74
2021/11/20 11:17:30;;;;;;;27.65;18.48;;;12.90;99.90;;;;;;5058374;28;20025;-75
2021/11/20 11:20:32;;;;;;;28.08;19.05;;;13.00;99.90;;;;;;5067303;28;20013;-75
2021/11/20 11:23:15;;;;;;;29.98;18.48;;;12.90;99.90;;;;;;5082609;28;20118;-75
2021/11/20 11:25:58;;;;;;;26.02;17.98;;;12.90;99.90;;;;;;5040544;28;20016;-77
2021/11/20 11:28:53;;;;;;;27.58;17.02;;;12.90;99.90;;;;;;5057148;28;20096;-75
2021/11/20 11:31:26;;;;;;;25.25;16.20;;;12.90;99.90;;;;;;5066622;28;20504;-76
2021/11/20 11:33:58;;;;;;;24.67;17.08;;;12.90;99.90;;;;;;5041187;28;20023;-75
2021/11/20 11:36:39;;;;;;;24.25;16.90;;;12.90;99.90;;;;;;5044238;28;20513;-76
2021/11/20 11:39:18;;;;;;;24.65;16.48;;;12.90;99.90;;;;;;5043350;28;20026;-76
2021/11/20 11:42:00;;;;;;;23.80;16.63;;;13.00;99.90;;;;;;5045243;28;20104;-76
2021/11/20 11:45:02;;;;;;;23.23;15.07;;;12.80;99.90;;;;;;5044558;28;20072;-75
2021/11/20 11:47:44;;;;;;;23.27;15.80;;;12.90;99.90;;;;;;5054231;28;20474;-79
2021/11/20 11:50:15;;;;;;;22.95;15.93;;;12.90;99.90;;;;;;5052250;28;20035;-76
2021/11/20 11:52:50;;;;;;;22.33;14.60;;;12.80;99.90;;;;;;5067736;28;20043;-78
2021/11/20 11:55:45;;;;;;;23.85;15.20;;;12.80;99.90;;;;;;5066995;28;20043;-79
2021/11/20 11:58:32;;;;;;;21.55;15.15;;;12.80;99.90;;;;;;5057938;28;20047;-80
2021/11/20 12:01:12;;;;;;;17.33;13.27;;;12.80;99.90;;;;;;5058966;28;20477;-80
2021/11/20 12:03:44;;;;;;;21.38;15.45;;;12.80;99.90;;;;;;5053610;28;20503;-78
2021/11/20 12:06:31;;;;;;;22.40;14.70;;;12.70;99.90;;;;;;5063590;28;20029;-79
2021/11/20 12:09:04;;;;;;;20.60;14.52;;;12.80;99.90;;;;;;5060056;28;20017;-79
2021/11/20 12:11:37;;;;;;;24.10;15.20;;;12.70;99.90;;;;;;5045148;28;20033;-79
2021/11/20 12:14:15;;;;;;;22.75;15.80;;;12.70;99.90;;;;;;5060262;28;20032;-78
2021/11/20 12:16:46;;;;;;;20.63;14.40;;;12.70;99.90;;;;;;5044758;28;20067;-78
2021/11/20 12:19:23;;;;;;;22.33;15.45;;;12.80;99.90;;;;;;5067585;28;20120;-79
2021/11/20 12:22:04;;;;;;;23.55;14.48;;;12.70;99.90;;;;;;5049862;28;20488;-78
2021/11/20 12:25:14;;;;;;;22.98;15.45;;;12.70;99.90;;;;;;5051846;28;20437;-79
2021/11/20 12:27:49;;;;;;;21.08;15.23;;;12.60;99.90;;;;;;5060843;28;20470;-79
2021/11/20 12:30:29;;;;;;;24.65;15.52;;;12.60;99.90;;;;;;5047386;28;20029;-79
2021/11/20 12:33:07;;;;;;;22.67;16.00;;;12.70;99.90;;;;;;5057693;28;20032;-78
2021/11/20 12:35:51;;;;;;;23.40;17.58;;;12.60;99.90;;;;;;5053945;28;20033;-79
2021/11/20 12:38:17;;;;;;;29.45;18.58;;;12.70;99.90;;;;;;5068653;28;20028;-79
2021/11/20 12:41:09;;;;;;;27.20;18.67;;;12.70;99.90;;;;;;5063690;28;20017;-78
2021/11/20 12:44:05;;;;;;;25.30;17.20;;;12.60;99.90;;;;;;5069757;28;20493;-78
2021/11/20 12:47:22;;;;;;;24.55;17.65;;;12.70;99.90;;;;;;5044055;28;20081;-78
2021/11/20 12:50:22;;;;;;;28.13;18.50;;;12.70;99.90;;;;;;5045417;28;20028;-78
2021/11/20 12:52:47;;;;;;;29.50;19.48;;;12.60;99.90;;;;;;5055478;28;20049;-79